Time;durP1;ratioP1;P1;durP2;ratioP2;P2;SDS_P1;SDS_P2;PMS_P1;PMS_P2;Temp;Humidity;BMP_temperature;BMP_pressure;BME280_temperature;BME280_humidity;BME280_pressure;Samples;Min_cycle;Max_cycle;Signal;HPM_P1;HPM_P2
2022/02/16 00:02:09;;;;;;;1.70;0.87;;;7.90;99.90;;;;;;5038362;28;20225;-90
2022/02/16 00:04:36;;;;;;;1.47;0.63;;;7.90;99.90;;;;;;5039557;28;20221;-90
2022/02/16 00:07:02;;;;;;;25.87;1.80;;;7.90;99.90;;;;;;5038694;28;20225;-88
2022/02/16 00:09:28;;;;;;;2.30;1.07;;;7.90;99.90;;;;;;5054942;28;20200;-89
2022/02/16 00:11:54;;;;;;;5.80;2.57;;;7.90;99.90;;;;;;5038365;28;20225;-90
2022/02/16 00:14:20;;;;;;;1.83;1.70;;;7.90;99.90;;;;;;5055407;28;20221;-89
2022/02/16 00:16:45;;;;;;;1.50;0.80;;;7.90;99.90;;;;;;5056819;28;20253;-90
2022/02/16 00:19:11;;;;;;;6.30;1.70;;;7.90;99.90;;;;;;5038508;28;20290;-89
2022/02/16 00:21:37;;;;;;;0.70;0.70;;;7.90;99.90;;;;;;5054177;28;20234;-89
2022/02/16 00:24:03;;;;;;;1.57;1.30;;;7.80;99.90;;;;;;5023191;28;20634;-89
2022/02/16 00:26:29;;;;;;;0.53;0.53;;;7.90;99.90;;;;;;5033049;28;20217;-88
2022/02/16 00:28:55;;;;;;;0.33;0.33;;;7.80;99.90;;;;;;5047981;28;20733;-88
2022/02/16 00:31:21;;;;;;;0.47;0.47;;;7.80;99.90;;;;;;5035971;28;20213;-90
2022/02/16 00:33:49;;;;;;;8.40;1.10;;;7.80;99.90;;;;;;5060884;28;20234;-89
2022/02/16 00:36:15;;;;;;;17.53;2.27;;;7.80;99.90;;;;;;5035081;28;20190;-89
2022/02/16 00:38:41;;;;;;;1.60;0.67;;;7.80;99.90;;;;;;5034615;28;20252;-89
2022/02/16 00:41:07;;;;;;;2.07;1.97;;;7.80;99.90;;;;;;5035562;28;20229;-89
2022/02/16 00:43:32;;;;;;;0.60;0.60;;;7.80;99.90;;;;;;5053183;28;20251;-91
2022/02/16 00:45:58;;;;;;;1.93;1.83;;;7.80;99.90;;;;;;5051725;28;20689;-89
2022/02/16 00:48:24;;;;;;;2.97;1.83;;;7.80;99.90;;;;;;5055375;28;20228;-89
2022/02/16 00:50:50;;;;;;;0.83;0.67;;;7.80;99.90;;;;;;5036967;28;20225;-90
2022/02/16 00:53:16;;;;;;;1.10;0.70;;;7.80;99.90;;;;;;5053103;28;20678;-89
2022/02/16 00:55:41;;;;;;;4.83;0.90;;;7.70;99.90;;;;;;5053256;28;20312;-89
2022/02/16 00:58:07;;;;;;;0.77;0.77;;;7.70;99.90;;;;;;5022660;28;20224;-88
2022/02/16 01:00:35;;;;;;;0.20;0.20;;;7.70;99.90;;;;;;5055015;28;20657;-87
2022/02/16 01:03:01;;;;;;;0.20;0.20;;;7.80;99.90;;;;;;5054911;28;20235;-87
2022/02/16 01:05:27;;;;;;;1.40;1.07;;;7.70;99.90;;;;;;5052592;28;20213;-87
2022/02/16 01:07:53;;;;;;;0.20;0.20;;;7.70;99.90;;;;;;5039116;28;20228;-88
2022/02/16 01:10:19;;;;;;;0.70;0.70;;;7.70;99.90;;;;;;5030260;28;20278;-90
2022/02/16 01:12:45;;;;;;;5.53;2.27;;;7.70;99.90;;;;;;5036875;28;20185;-87
2022/02/16 01:15:11;;;;;;;0.70;0.70;;;7.70;99.90;;;;;;5064822;28;20203;-88
2022/02/16 01:17:37;;;;;;;5.53;0.50;;;7.70;99.90;;;;;;5021660;28;20221;-87
2022/02/16 01:20:05;;;;;;;3.03;0.83;;;7.70;99.90;;;;;;5035826;28;20271;-90
2022/02/16 01:22:32;;;;;;;1.13;0.77;;;7.80;99.90;;;;;;5052789;28;20327;-89
2022/02/16 01:24:58;;;;;;;0.90;0.90;;;7.70;99.90;;;;;;5054145;28;20298;-88
2022/02/16 01:27:24;;;;;;;2.93;0.57;;;7.70;99.90;;;;;;5054789;28;21214;-89
2022/02/16 01:29:50;;;;;;;3.10;1.60;;;7.70;99.90;;;;;;5055665;28;20236;-89
2022/02/16 01:32:16;;;;;;;4.53;1.97;;;7.70;99.90;;;;;;5041679;28;20220;-87
2022/02/16 01:34:42;;;;;;;0.43;0.43;;;7.70;99.90;;;;;;5040450;28;20329;-87
2022/02/16 01:37:08;;;;;;;1.33;1.23;;;7.70;99.90;;;;;;5069205;28;20225;-88
2022/02/16 01:39:34;;;;;;;1.03;0.87;;;7.70;99.90;;;;;;5056293;28;20267;-87
2022/02/16 01:42:00;;;;;;;0.87;0.77;;;7.70;99.90;;;;;;5059694;28;20601;-89
2022/02/16 01:44:26;;;;;;;1.43;1.20;;;7.70;99.90;;;;;;5040858;28;20242;-89
2022/02/16 01:47:04;;;;;;;0.97;0.60;;;7.70;99.90;;;;;;5040767;28;20217;-87
2022/02/16 01:49:35;;;;;;;0.73;0.53;;;7.70;99.90;;;;;;5068456;28;20847;-87
2022/02/16 01:52:01;;;;;;;2.83;0.60;;;7.80;99.90;;;;;;5067796;28;20248;-87
2022/02/16 01:54:27;;;;;;;1.93;1.50;;;7.80;99.90;;;;;;5040418;28;20267;-87
2022/02/16 01:56:53;;;;;;;2.47;2.27;;;7.80;99.90;;;;;;5057787;28;20343;-88
2022/02/16 01:59:22;;;;;;;3.67;1.30;;;7.70;99.90;;;;;;5068320;28;20221;-87
2022/02/16 02:01:48;;;;;;;11.87;1.50;;;7.70;99.90;;;;;;5057205;28;20331;-89
2022/02/16 02:04:15;;;;;;;0.83;0.77;;;7.70;99.90;;;;;;5057501;28;20247;-88
2022/02/16 02:06:41;;;;;;;2.67;1.17;;;7.70;99.90;;;;;;5040646;28;20193;-87
2022/02/16 02:09:07;;;;;;;2.03;1.87;;;7.70;99.90;;;;;;5068329;28;20217;-88
2022/02/16 02:11:33;;;;;;;1.40;1.30;;;7.70;99.90;;;;;;5056505;28;20217;-89
2022/02/16 02:14:02;;;;;;;1.27;1.20;;;7.80;99.90;;;;;;5039333;28;20270;-88
2022/02/16 02:16:28;;;;;;;1.83;1.67;;;7.80;99.90;;;;;;5057625;28;20217;-87
2022/02/16 02:18:54;;;;;;;2.87;1.37;;;7.80;99.90;;;;;;5056120;28;20217;-86
2022/02/16 02:21:21;;;;;;;4.90;2.37;;;7.80;99.90;;;;;;5040622;28;20206;-87
2022/02/16 02:23:48;;;;;;;4.27;1.10;;;7.80;99.90;;;;;;5040176;28;20300;-87
2022/02/16 02:26:15;;;;;;;4.77;1.67;;;7.90;99.90;;;;;;5057601;28;20225;-87
2022/02/16 02:28:41;;;;;;;1.43;1.33;;;7.90;99.90;;;;;;5058478;28;20282;-88
2022/02/16 02:31:08;;;;;;;8.90;3.87;;;7.90;99.90;;;;;;5055951;28;20229;-88
2022/02/16 02:33:34;;;;;;;1.57;1.47;;;8.00;99.90;;;;;;5073617;28;20205;-87
2022/02/16 02:36:00;;;;;;;2.17;1.87;;;8.00;99.90;;;;;;5056334;28;20615;-87
2022/02/16 02:38:26;;;;;;;2.97;2.77;;;8.00;99.90;;;;;;5038548;28;20448;-88
2022/02/16 02:40:53;;;;;;;2.77;1.83;;;8.00;99.90;;;;;;5056885;28;20312;-87
2022/02/16 02:43:20;;;;;;;10.43;4.30;;;8.00;99.90;;;;;;5056261;28;20303;-87
2022/02/16 02:45:46;;;;;;;4.83;4.03;;;8.10;99.90;;;;;;5038924;28;20192;-87
2022/02/16 02:48:12;;;;;;;4.63;2.80;;;8.10;99.90;;;;;;5057134;28;21196;-89
2022/02/16 02:50:38;;;;;;;6.03;3.63;;;8.10;99.90;;;;;;5056709;28;20209;-87
2022/02/16 02:53:04;;;;;;;12.00;3.50;;;8.10;99.90;;;;;;5066452;28;20221;-88
2022/02/16 02:55:30;;;;;;;29.63;3.37;;;8.20;99.90;;;;;;5049477;28;20274;-87
2022/02/16 02:57:56;;;;;;;8.33;3.53;;;8.20;99.90;;;;;;5057188;28;20274;-87
2022/02/16 03:00:22;;;;;;;11.67;2.37;;;8.20;99.90;;;;;;5039790;28;20194;-88
2022/02/16 03:02:47;;;;;;;4.23;1.60;;;8.20;99.90;;;;;;5056722;28;20579;-87
2022/02/16 03:05:13;;;;;;;6.30;4.80;;;8.20;99.90;;;;;;5021957;28;20249;-89
2022/02/16 03:07:40;;;;;;;7.67;2.80;;;8.30;99.90;;;;;;5055466;28;20714;-88
2022/02/16 03:10:06;;;;;;;5.23;3.73;;;8.30;99.90;;;;;;5056387;28;20217;-89
2022/02/16 03:12:32;;;;;;;7.40;3.27;;;8.30;99.90;;;;;;5053395;28;20204;-87
2022/02/16 03:14:58;;;;;;;2.87;2.60;;;8.40;99.90;;;;;;5040724;28;20190;-87
2022/02/16 03:17:26;;;;;;;2.00;1.67;;;8.40;99.90;;;;;;5057026;28;20213;-87
2022/02/16 03:19:52;;;;;;;3.07;2.83;;;8.40;99.90;;;;;;5040023;28;20220;-87
2022/02/16 03:22:19;;;;;;;2.90;2.50;;;8.40;99.90;;;;;;5057290;28;20217;-87
2022/02/16 03:24:46;;;;;;;3.53;2.67;;;8.40;99.90;;;;;;5039581;28;20530;-88
2022/02/16 03:27:12;;;;;;;3.00;2.80;;;8.40;99.90;;;;;;5038237;28;20288;-87
2022/02/16 03:29:37;;;;;;;3.43;3.17;;;8.50;99.90;;;;;;5053837;28;20245;-87
2022/02/16 03:32:04;;;;;;;14.03;1.80;;;8.50;99.90;;;;;;5053250;28;20271;-88
2022/02/16 03:34:29;;;;;;;3.60;3.23;;;8.50;99.90;;;;;;5052720;28;20286;-87
2022/02/16 03:36:55;;;;;;;2.97;1.97;;;8.50;99.90;;;;;;5021249;28;20221;-86
2022/02/16 03:39:21;;;;;;;2.43;1.57;;;8.60;99.90;;;;;;5054123;28;20464;-85
2022/02/16 03:41:47;;;;;;;5.60;3.17;;;8.60;99.90;;;;;;5022524;28;20213;-87
2022/02/16 03:44:14;;;;;;;6.07;1.63;;;8.50;99.90;;;;;;5021459;28;20212;-87
2022/02/16 03:46:40;;;;;;;3.53;2.07;;;8.60;99.90;;;;;;5055270;28;20332;-89
2022/02/16 03:49:06;;;;;;;3.33;2.37;;;8.60;99.90;;;;;;5038059;28;20233;-87
2022/02/16 03:51:33;;;;;;;5.63;2.43;;;8.60;99.90;;;;;;5055046;28;20585;-88
2022/02/16 03:53:59;;;;;;;8.60;3.47;;;8.70;99.90;;;;;;5055187;28;20212;-88
2022/02/16 03:56:25;;;;;;;4.63;2.00;;;8.70;99.90;;;;;;5022734;28;20217;-86
2022/02/16 03:58:51;;;;;;;4.60;2.70;;;8.70;99.90;;;;;;5055231;28;20221;-87
2022/02/16 04:01:17;;;;;;;4.07;2.27;;;8.70;99.90;;;;;;5039921;28;20705;-87
2022/02/16 04:03:43;;;;;;;6.27;2.63;;;8.70;99.90;;;;;;5038239;28;20181;-87
2022/02/16 04:06:08;;;;;;;6.17;2.63;;;8.70;99.90;;;;;;5057177;28;20188;-88
2022/02/16 04:08:34;;;;;;;2.83;1.97;;;8.80;99.90;;;;;;5054835;28;20225;-86
2022/02/16 04:11:00;;;;;;;7.27;3.13;;;8.90;99.90;;;;;;5031833;28;20355;-87
2022/02/16 04:13:26;;;;;;;5.53;2.63;;;8.90;99.90;;;;;;5037477;28;20270;-86
2022/02/16 04:15:52;;;;;;;2.50;2.30;;;8.90;99.90;;;;;;5065249;28;20260;-87
2022/02/16 04:18:17;;;;;;;4.30;2.77;;;8.90;99.90;;;;;;5055173;28;20205;-89
2022/02/16 04:20:43;;;;;;;4.60;3.00;;;8.90;99.90;;;;;;5056091;28;20232;-85
2022/02/16 04:23:09;;;;;;;2.23;1.97;;;8.90;99.90;;;;;;5019944;28;20213;-87
2022/02/16 04:25:36;;;;;;;2.93;2.50;;;9.00;99.90;;;;;;5064990;28;20241;-87
2022/02/16 04:28:04;;;;;;;3.90;2.80;;;8.90;99.90;;;;;;5047112;28;20726;-87
2022/02/16 04:30:31;;;;;;;5.33;4.63;;;9.00;99.90;;;;;;5053219;28;20237;-87
2022/02/16 04:32:57;;;;;;;8.73;3.90;;;9.00;99.90;;;;;;5054135;28;20251;-88
2022/02/16 04:35:23;;;;;;;4.20;2.73;;;9.00;99.90;;;;;;5065195;28;20209;-87
2022/02/16 04:37:49;;;;;;;2.90;1.90;;;8.90;99.90;;;;;;5038284;28;20298;-87
2022/02/16 04:40:16;;;;;;;3.60;2.70;;;9.00;99.90;;;;;;5037429;28;20316;-89
2022/02/16 04:42:41;;;;;;;5.93;3.13;;;9.00;99.90;;;;;;5054821;28;20410;-86
2022/02/16 04:45:08;;;;;;;10.50;4.90;;;9.10;99.90;;;;;;5030779;28;20563;-86
2022/02/16 04:47:34;;;;;;;5.00;2.40;;;9.10;99.90;;;;;;5052604;28;21275;-88
2022/02/16 04:49:59;;;;;;;7.03;3.90;;;9.20;99.90;;;;;;5036032;28;20229;-87
2022/02/16 04:52:34;;;;;;;4.70;3.37;;;9.10;99.90;;;;;;5038145;28;20682;-88
2022/02/16 04:55:03;;;;;;;4.20;2.87;;;9.20;99.90;;;;;;5037879;28;20224;-88
2022/02/16 04:57:29;;;;;;;5.70;4.17;;;9.20;99.90;;;;;;5054641;28;20219;-86
2022/02/16 04:59:58;;;;;;;5.13;3.13;;;9.20;99.90;;;;;;5065081;28;20193;-85
2022/02/16 05:02:25;;;;;;;4.60;4.00;;;9.20;99.90;;;;;;5037126;28;20216;-87
2022/02/16 05:04:51;;;;;;;4.93;3.33;;;9.20;99.90;;;;;;5052840;28;20286;-85
2022/02/16 05:07:17;;;;;;;4.10;3.27;;;9.30;99.90;;;;;;5060372;28;20217;-87
2022/02/16 05:09:43;;;;;;;4.63;3.47;;;9.20;99.90;;;;;;5051744;28;20688;-89
2022/02/16 05:12:12;;;;;;;7.27;4.50;;;9.20;99.90;;;;;;5035940;28;20193;-87
2022/02/16 05:14:38;;;;;;;7.23;3.70;;;9.20;99.90;;;;;;5030982;28;20216;-90
2022/02/16 05:17:03;;;;;;;7.63;2.57;;;9.30;99.90;;;;;;5051705;28;20653;-91
2022/02/16 05:19:29;;;;;;;3.57;3.27;;;9.30;99.90;;;;;;5051637;28;20225;-89
2022/02/16 05:21:56;;;;;;;7.30;4.03;;;9.30;99.90;;;;;;5063615;28;20227;-85
2022/02/16 05:24:22;;;;;;;5.70;3.00;;;9.30;99.90;;;;;;5052214;28;20206;-85
2022/02/16 05:26:48;;;;;;;5.07;3.40;;;9.40;99.90;;;;;;5063683;28;20300;-84
2022/02/16 05:29:14;;;;;;;3.17;2.73;;;9.30;99.90;;;;;;5063080;28;20983;-84
2022/02/16 05:31:40;;;;;;;2.90;2.67;;;9.30;99.90;;;;;;5063616;28;20213;-84
2022/02/16 05:34:06;;;;;;;1.90;1.53;;;9.30;99.90;;;;;;5035397;28;20227;-83
2022/02/16 05:36:31;;;;;;;4.83;2.87;;;9.30;99.90;;;;;;5034846;28;20242;-85
2022/02/16 05:38:57;;;;;;;2.97;2.43;;;9.40;99.90;;;;;;5063710;28;20232;-85
2022/02/16 05:41:23;;;;;;;4.80;2.73;;;9.40;99.90;;;;;;5052064;28;20312;-85
2022/02/16 05:43:49;;;;;;;3.50;1.70;;;9.40;99.90;;;;;;5052084;28;20823;-85
2022/02/16 05:46:15;;;;;;;2.70;1.70;;;9.40;99.90;;;;;;5055287;28;20227;-85
2022/02/16 05:48:41;;;;;;;1.87;1.63;;;9.30;99.90;;;;;;5053271;28;20241;-85
2022/02/16 05:51:07;;;;;;;3.97;3.10;;;9.30;99.90;;;;;;5064407;28;20277;-85
2022/02/16 05:53:33;;;;;;;3.33;2.57;;;9.40;99.90;;;;;;5063345;28;20260;-85
2022/02/16 05:55:59;;;;;;;2.40;2.00;;;9.40;99.90;;;;;;5054547;28;20244;-84
2022/02/16 05:58:24;;;;;;;4.23;3.07;;;9.30;99.90;;;;;;5020131;28;20689;-83
2022/02/16 06:00:50;;;;;;;3.10;2.03;;;9.40;99.90;;;;;;5062992;28;21170;-84
2022/02/16 06:03:16;;;;;;;1.47;1.37;;;9.40;99.90;;;;;;5052680;28;20216;-85
2022/02/16 06:05:42;;;;;;;6.70;1.57;;;9.40;99.90;;;;;;5016811;28;20635;-85
2022/02/16 06:08:07;;;;;;;3.33;2.70;;;9.40;99.90;;;;;;5053898;28;20287;-83
2022/02/16 06:10:33;;;;;;;10.63;4.80;;;9.40;99.90;;;;;;5018864;28;20229;-86
2022/02/16 06:13:00;;;;;;;5.37;3.60;;;9.40;99.90;;;;;;5051236;28;20606;-85
2022/02/16 06:15:27;;;;;;;3.77;3.37;;;9.50;99.90;;;;;;5066649;28;20197;-84
2022/02/16 06:17:54;;;;;;;3.07;2.87;;;9.40;99.90;;;;;;5065987;28;20303;-84
2022/02/16 06:20:20;;;;;;;4.23;2.67;;;9.50;99.90;;;;;;5036861;28;20213;-85
2022/02/16 06:22:46;;;;;;;5.83;4.07;;;9.50;99.90;;;;;;5057078;28;20220;-84
2022/02/16 06:25:12;;;;;;;3.43;3.13;;;9.40;99.90;;;;;;5041085;28;20229;-85
2022/02/16 06:27:38;;;;;;;5.23;3.17;;;9.50;99.90;;;;;;5055444;28;20666;-85
2022/02/16 06:30:05;;;;;;;2.77;2.47;;;9.50;99.90;;;;;;5056487;28;20246;-85
2022/02/16 06:32:32;;;;;;;3.30;2.77;;;9.50;99.90;;;;;;5056431;28;20221;-85
2022/02/16 06:34:57;;;;;;;4.07;3.67;;;9.50;99.90;;;;;;5066673;28;20286;-85
2022/02/16 06:37:23;;;;;;;3.73;2.87;;;9.60;99.90;;;;;;5056679;28;20225;-85
2022/02/16 06:39:49;;;;;;;4.90;3.00;;;9.60;99.90;;;;;;5066287;28;20234;-82
2022/02/16 06:42:15;;;;;;;3.20;2.03;;;9.50;99.90;;;;;;5056061;28;20196;-84
2022/02/16 06:44:40;;;;;;;4.53;1.93;;;9.60;99.90;;;;;;5055092;28;21040;-84
2022/02/16 06:47:07;;;;;;;2.27;2.07;;;9.60;99.90;;;;;;5051918;28;20800;-86
2022/02/16 06:49:32;;;;;;;3.87;2.50;;;9.60;99.90;;;;;;5052083;28;20269;-83
2022/02/16 06:51:58;;;;;;;2.20;2.03;;;9.60;99.90;;;;;;5032755;28;20754;-84
2022/02/16 06:54:24;;;;;;;2.73;2.53;;;9.70;99.90;;;;;;5062135;28;20266;-83
2022/02/16 06:56:50;;;;;;;3.83;1.90;;;9.70;99.90;;;;;;5063683;28;20226;-85
2022/02/16 06:59:16;;;;;;;2.47;2.07;;;9.70;99.90;;;;;;5051566;28;20228;-85
2022/02/16 07:01:41;;;;;;;1.50;1.40;;;9.80;99.90;;;;;;5052258;28;21035;-85
2022/02/16 07:04:07;;;;;;;1.43;1.33;;;9.70;99.90;;;;;;5029029;28;20296;-84
2022/02/16 07:06:33;;;;;;;2.23;1.50;;;9.80;99.90;;;;;;5062113;28;20251;-83
2022/02/16 07:08:59;;;;;;;3.00;2.60;;;9.80;99.90;;;;;;5063455;28;20886;-84
2022/02/16 07:11:24;;;;;;;1.90;1.43;;;9.80;99.90;;;;;;5052625;28;20339;-81
2022/02/16 07:13:50;;;;;;;0.60;0.60;;;9.80;99.90;;;;;;5038861;28;21076;-83
2022/02/16 07:16:16;;;;;;;1.80;1.23;;;9.80;99.90;;;;;;5037841;28;20217;-81
2022/02/16 07:18:43;;;;;;;2.23;1.90;;;9.80;99.90;;;;;;5065184;28;20869;-82
2022/02/16 07:21:09;;;;;;;1.80;1.63;;;9.90;99.90;;;;;;5066712;28;20197;-84
2022/02/16 07:23:36;;;;;;;1.57;1.40;;;9.90;99.90;;;;;;5066137;28;20217;-85
2022/02/16 07:26:02;;;;;;;1.43;1.33;;;9.90;99.90;;;;;;5054944;28;20228;-83
2022/02/16 07:28:28;;;;;;;1.73;1.63;;;9.90;99.90;;;;;;5036773;28;20229;-83
2022/02/16 07:30:56;;;;;;;0.93;0.70;;;10.00;99.90;;;;;;5052772;28;20233;-84
2022/02/16 07:33:22;;;;;;;1.33;0.97;;;10.00;99.90;;;;;;5056703;28;20197;-84
2022/02/16 07:35:49;;;;;;;1.60;1.50;;;10.20;99.90;;;;;;5056369;28;20205;-82
2022/02/16 07:38:15;;;;;;;0.30;0.30;;;10.30;99.90;;;;;;5065842;28;20225;-83
2022/02/16 07:40:41;;;;;;;0.60;0.50;;;10.30;99.90;;;;;;5040322;28;21018;-83
2022/02/16 07:43:07;;;;;;;0.80;0.80;;;10.40;99.90;;;;;;5065529;28;20259;-82
2022/02/16 07:45:33;;;;;;;0.63;0.63;;;10.40;99.90;;;;;;5047669;28;20343;-82
2022/02/16 07:48:00;;;;;;;0.30;0.30;;;10.50;99.90;;;;;;5039117;28;20213;-82
2022/02/16 07:50:27;;;;;;;2.83;0.70;;;10.50;99.90;;;;;;5052703;28;20771;-83
2022/02/16 07:52:55;;;;;;;0.97;0.70;;;10.60;99.90;;;;;;5065264;28;20280;-82
2022/02/16 07:55:21;;;;;;;0.37;0.37;;;10.60;99.90;;;;;;5052098;28;20217;-84
2022/02/16 07:57:47;;;;;;;1.40;1.30;;;10.60;99.90;;;;;;5038112;28;20193;-82
2022/02/16 08:00:14;;;;;;;0.50;0.50;;;10.70;99.90;;;;;;5066394;28;20201;-82
2022/02/16 08:02:39;;;;;;;0.27;0.27;;;10.70;99.90;;;;;;5065111;28;20217;-81
2022/02/16 08:05:06;;;;;;;0.60;0.60;;;10.70;99.90;;;;;;5055029;28;20217;-83
2022/02/16 08:07:31;;;;;;;1.40;0.90;;;10.80;99.90;;;;;;5054368;28;20224;-80
2022/02/16 08:09:57;;;;;;;0.90;0.60;;;10.80;99.90;;;;;;5053059;28;20236;-83
2022/02/16 08:12:23;;;;;;;3.30;1.40;;;10.80;99.90;;;;;;5054447;28;20294;-83
2022/02/16 08:14:49;;;;;;;1.33;0.90;;;10.90;99.90;;;;;;5038140;28;20762;-82
2022/02/16 08:17:14;;;;;;;4.57;3.47;;;10.80;99.90;;;;;;5053845;28;20229;-82
2022/02/16 08:19:40;;;;;;;3.63;0.83;;;10.80;99.90;;;;;;5056282;28;20217;-84
2022/02/16 08:22:06;;;;;;;12.20;2.10;;;10.80;99.90;;;;;;5053287;28;20213;-82
2022/02/16 08:24:32;;;;;;;1.20;0.90;;;10.90;99.90;;;;;;5037559;28;20193;-83
2022/02/16 08:26:59;;;;;;;1.90;1.37;;;10.90;99.90;;;;;;5065666;28;20174;-83
2022/02/16 08:29:25;;;;;;;1.03;0.87;;;10.90;99.90;;;;;;5064660;28;20237;-83
2022/02/16 08:31:52;;;;;;;2.90;0.83;;;10.90;99.90;;;;;;5055739;28;20648;-82
2022/02/16 08:34:18;;;;;;;9.50;2.93;;;10.90;99.90;;;;;;5054047;28;20225;-84
2022/02/16 08:36:44;;;;;;;1.97;1.00;;;11.10;99.90;;;;;;5071443;28;20189;-82
2022/02/16 08:39:10;;;;;;;1.70;0.93;;;11.00;99.90;;;;;;5064771;28;20205;-83
2022/02/16 08:41:36;;;;;;;0.73;0.67;;;11.00;99.90;;;;;;5054432;28;20225;-82
2022/02/16 08:44:02;;;;;;;3.90;1.20;;;11.10;99.90;;;;;;5064425;28;20241;-82
2022/02/16 08:46:28;;;;;;;5.87;1.17;;;11.10;99.90;;;;;;5053487;28;20240;-83
2022/02/16 08:48:54;;;;;;;4.83;0.83;;;11.20;99.90;;;;;;5036598;28;20237;-84
2022/02/16 08:51:20;;;;;;;2.43;1.83;;;11.20;99.90;;;;;;5065384;28;20290;-84
2022/02/16 08:53:46;;;;;;;3.07;0.93;;;11.20;99.90;;;;;;5037143;28;20690;-84
2022/02/16 08:56:12;;;;;;;0.50;0.50;;;11.30;99.90;;;;;;5065005;28;20224;-85
2022/02/16 08:58:37;;;;;;;1.00;0.83;;;11.40;99.90;;;;;;5064619;28;20249;-85
2022/02/16 09:01:03;;;;;;;1.57;0.77;;;11.40;99.90;;;;;;5064826;28;20596;-84
2022/02/16 09:03:29;;;;;;;5.93;1.90;;;11.40;99.90;;;;;;5050869;28;20226;-84
2022/02/16 09:05:56;;;;;;;10.23;1.27;;;11.40;99.90;;;;;;5054384;28;20226;-83
2022/02/16 09:08:22;;;;;;;5.87;1.20;;;11.50;99.90;;;;;;5054382;28;20245;-84
2022/02/16 09:10:47;;;;;;;2.60;1.10;;;11.60;99.90;;;;;;5064098;28;20581;-85
2022/02/16 09:13:13;;;;;;;4.70;1.47;;;11.60;99.90;;;;;;5063736;28;20225;-85
2022/02/16 09:15:39;;;;;;;1.97;0.43;;;11.60;99.90;;;;;;5064615;28;20189;-84
2022/02/16 09:18:06;;;;;;;0.93;0.63;;;11.70;99.90;;;;;;5055469;28;20193;-84
2022/02/16 09:20:32;;;;;;;3.47;1.30;;;11.70;99.90;;;;;;5035705;28;20220;-86
2022/02/16 09:22:57;;;;;;;3.23;0.83;;;11.80;99.90;;;;;;5035436;28;20671;-83
2022/02/16 09:25:23;;;;;;;1.53;0.83;;;11.90;99.90;;;;;;5050283;28;20224;-85
2022/02/16 09:27:49;;;;;;;1.63;1.00;;;12.00;99.90;;;;;;5060998;28;20252;-83
2022/02/16 09:30:15;;;;;;;0.80;0.60;;;12.20;99.90;;;;;;5051040;28;20237;-84
2022/02/16 09:32:41;;;;;;;8.00;0.77;;;12.30;99.90;;;;;;5052502;28;20228;-84
2022/02/16 09:35:08;;;;;;;1.63;0.93;;;12.50;99.90;;;;;;5064703;28;20225;-83
2022/02/16 09:37:33;;;;;;;2.33;0.63;;;12.40;99.90;;;;;;5063796;28;20296;-84
2022/02/16 09:39:59;;;;;;;5.30;1.27;;;12.50;99.90;;;;;;5064386;28;20213;-82
2022/02/16 09:42:25;;;;;;;3.17;0.50;;;12.50;99.90;;;;;;5056313;28;20186;-84
2022/02/16 09:44:58;;;;;;;1.13;0.60;;;12.60;99.90;;;;;;5052378;28;20217;-86
2022/02/16 09:47:25;;;;;;;3.67;1.63;;;12.60;99.90;;;;;;5051925;28;20228;-86
2022/02/16 09:49:51;;;;;;;2.83;0.77;;;12.70;99.90;;;;;;5063923;28;20233;-84
2022/02/16 09:52:19;;;;;;;2.57;1.00;;;12.70;99.90;;;;;;5052983;28;20229;-84
2022/02/16 09:54:45;;;;;;;4.93;1.07;;;12.60;99.90;;;;;;5036716;28;20201;-84
2022/02/16 09:57:11;;;;;;;0.90;0.50;;;12.60;99.90;;;;;;5056903;28;20641;-84
2022/02/16 09:59:37;;;;;;;3.60;0.80;;;12.70;99.90;;;;;;5055577;28;20225;-86
2022/02/16 10:02:05;;;;;;;1.47;0.70;;;12.60;99.90;;;;;;5055455;28;20690;-84
2022/02/16 10:04:33;;;;;;;8.53;1.63;;;12.60;99.90;;;;;;5055602;28;20209;-85
2022/02/16 10:06:59;;;;;;;4.57;1.57;;;12.70;99.90;;;;;;5069772;28;20300;-86
2022/02/16 10:09:32;;;;;;;5.70;1.40;;;12.80;99.90;;;;;;5056511;28;20378;-86
2022/02/16 10:12:00;;;;;;;4.00;0.67;;;12.80;99.90;;;;;;5068554;28;20229;-89
2022/02/16 10:14:29;;;;;;;2.47;0.87;;;12.90;99.90;;;;;;5067461;28;20224;-88
2022/02/16 10:16:56;;;;;;;1.40;0.73;;;12.80;99.90;;;;;;5058328;28;20212;-85
2022/02/16 10:19:22;;;;;;;4.30;0.77;;;12.80;99.90;;;;;;5058016;28;20236;-89
2022/02/16 10:22:09;;;;;;;4.73;1.20;;;12.80;99.90;;;;;;5057227;28;20239;-86
2022/02/16 10:24:35;;;;;;;1.80;1.20;;;12.90;99.90;;;;;;5057205;28;20277;-86
2022/02/16 10:27:02;;;;;;;2.40;0.47;;;12.90;99.90;;;;;;5041123;28;20208;-87
2022/02/16 10:29:32;;;;;;;14.03;1.47;;;12.90;99.90;;;;;;5054750;28;20277;-89
2022/02/16 10:32:00;;;;;;;4.23;0.73;;;13.00;99.90;;;;;;5047097;28;20706;-89
2022/02/16 10:34:44;;;;;;;0.70;0.60;;;12.90;99.90;;;;;;5029976;28;20232;-86
2022/02/16 10:37:11;;;;;;;1.63;0.90;;;12.90;99.90;;;;;;5047760;28;20221;-85
2022/02/16 10:39:37;;;;;;;7.43;1.07;;;12.90;99.90;;;;;;5030308;28;20263;-89
2022/02/16 10:42:03;;;;;;;4.67;1.07;;;12.90;99.90;;;;;;5047380;28;20186;-88
2022/02/16 10:44:31;;;;;;;5.20;1.03;;;12.90;99.90;;;;;;5030110;28;20214;-87
2022/02/16 10:47:10;;;;;;;3.63;1.30;;;12.90;99.90;;;;;;5046433;28;20303;-86
2022/02/16 10:49:49;;;;;;;4.17;1.57;;;12.90;99.90;;;;;;5048161;28;20256;-87
2022/02/16 10:52:20;;;;;;;7.00;0.70;;;12.90;99.90;;;;;;5046386;28;20301;-87
2022/02/16 10:54:58;;;;;;;2.00;0.27;;;12.80;99.90;;;;;;5047013;28;20201;-86
2022/02/16 10:57:24;;;;;;;1.40;1.30;;;12.80;99.90;;;;;;5048447;28;20227;-86
2022/02/16 10:59:50;;;;;;;3.07;0.63;;;12.80;99.90;;;;;;5045285;28;20210;-87
2022/02/16 11:02:18;;;;;;;9.23;0.80;;;12.80;99.90;;;;;;5047121;28;20268;-88
2022/02/16 11:04:46;;;;;;;2.70;0.83;;;12.70;99.90;;;;;;5047350;28;20322;-86
2022/02/16 11:07:18;;;;;;;1.93;1.00;;;12.80;99.90;;;;;;5046847;28;20256;-85
2022/02/16 11:09:48;;;;;;;4.23;0.70;;;12.80;99.90;;;;;;5045604;28;20210;-87
2022/02/16 11:12:14;;;;;;;7.87;1.27;;;12.80;99.90;;;;;;5047769;28;20252;-86
2022/02/16 11:14:41;;;;;;;1.70;0.60;;;12.90;99.90;;;;;;5046920;28;20668;-87
2022/02/16 11:17:09;;;;;;;4.63;1.30;;;12.90;99.90;;;;;;5046525;28;20233;-87
2022/02/16 11:19:36;;;;;;;13.70;1.17;;;12.80;99.90;;;;;;5045288;28;20228;-86
2022/02/16 11:22:06;;;;;;;4.77;1.63;;;12.90;99.90;;;;;;5045723;28;20249;-87
2022/02/16 11:24:35;;;;;;;5.10;1.83;;;12.90;99.90;;;;;;5046840;28;20201;-87
2022/02/16 11:27:23;;;;;;;3.20;0.97;;;12.80;99.90;;;;;;5047623;28;20234;-89
2022/02/16 11:29:49;;;;;;;2.80;1.00;;;12.90;99.90;;;;;;5053982;28;21164;-86
2022/02/16 11:32:15;;;;;;;3.20;1.00;;;12.90;99.90;;;;;;5067500;28;20221;-87
2022/02/16 11:34:42;;;;;;;3.87;1.07;;;12.90;99.90;;;;;;5066715;28;20279;-88
2022/02/16 11:37:08;;;;;;;2.73;0.73;;;12.90;99.90;;;;;;5074853;28;20221;-86
2022/02/16 11:39:41;;;;;;;2.63;0.90;;;12.80;99.90;;;;;;5071904;28;20266;-86
2022/02/16 11:42:12;;;;;;;1.23;1.10;;;12.80;99.90;;;;;;5056382;28;20189;-86
2022/02/16 11:44:50;;;;;;;5.80;0.80;;;12.70;99.90;;;;;;5057141;28;21118;-89
2022/02/16 11:47:34;;;;;;;3.00;1.33;;;12.70;99.90;;;;;;5055417;28;20213;-86
2022/02/16 11:50:05;;;;;;;1.77;0.27;;;12.70;99.90;;;;;;5066551;28;20280;-86
2022/02/16 11:52:43;;;;;;;6.13;0.80;;;12.70;99.90;;;;;;5066298;28;20232;-87
2022/02/16 11:55:24;;;;;;;2.17;1.37;;;12.70;99.90;;;;;;5056742;28;20240;-89
2022/02/16 11:57:54;;;;;;;3.43;0.80;;;12.70;99.90;;;;;;5064551;28;20245;-88
2022/02/16 12:00:20;;;;;;;12.97;1.60;;;12.70;99.90;;;;;;5054409;28;20223;-87
2022/02/16 12:02:55;;;;;;;1.53;1.20;;;12.70;99.90;;;;;;5065852;28;20245;-87
2022/02/16 12:05:49;;;;;;;2.93;0.40;;;12.70;99.90;;;;;;5055675;28;20587;-87
2022/02/16 12:08:20;;;;;;;3.77;1.00;;;12.60;99.90;;;;;;5064773;28;20221;-86
2022/02/16 12:10:58;;;;;;;4.53;1.57;;;12.60;99.90;;;;;;5053348;28;20300;-86
2022/02/16 12:13:33;;;;;;;4.73;1.20;;;12.60;99.90;;;;;;5065172;28;20571;-87
2022/02/16 12:16:02;;;;;;;2.37;2.00;;;12.60;99.90;;;;;;5055150;28;20220;-87
2022/02/16 12:18:29;;;;;;;2.63;1.00;;;12.60;99.90;;;;;;5052188;28;20189;-87
2022/02/16 12:20:55;;;;;;;0.97;0.57;;;12.60;99.90;;;;;;5035490;28;20217;-88
2022/02/16 12:23:21;;;;;;;2.87;1.23;;;12.60;99.90;;;;;;5049946;28;20248;-88
2022/02/16 12:26:21;;;;;;;0.87;0.40;;;12.60;99.90;;;;;;5036971;28;20232;-87
2022/02/16 12:29:01;;;;;;;10.67;1.43;;;12.60;99.90;;;;;;5052132;28;20286;-86
2022/02/16 12:31:32;;;;;;;8.43;1.30;;;12.70;99.90;;;;;;5062127;28;20233;-87
2022/02/16 12:34:12;;;;;;;3.87;0.73;;;12.70;99.90;;;;;;5067514;28;20347;-86
2022/02/16 12:36:43;;;;;;;0.77;0.77;;;12.70;99.90;;;;;;5062608;28;20196;-86
2022/02/16 12:39:10;;;;;;;2.97;0.83;;;12.80;99.90;;;;;;5052643;28;20197;-87
2022/02/16 12:41:37;;;;;;;3.97;1.00;;;12.80;99.90;;;;;;5053095;28;21023;-87
2022/02/16 12:44:08;;;;;;;4.43;1.23;;;12.80;99.90;;;;;;5051965;28;20213;-86
2022/02/16 12:46:39;;;;;;;2.43;1.40;;;12.80;99.90;;;;;;5063714;28;20251;-87
2022/02/16 12:49:08;;;;;;;5.07;1.10;;;12.80;99.90;;;;;;5064095;28;20610;-87
2022/02/16 12:51:36;;;;;;;7.93;2.73;;;12.90;99.90;;;;;;5055880;28;20200;-87
2022/02/16 12:54:05;;;;;;;4.67;1.00;;;12.90;99.90;;;;;;5056412;28;20264;-88